sensor_id;sensor_type;location;lat;lon;timestamp;pressure;altitude;pressure_sealevel;temperature
82411;BMP180;74662;60.040;30.218;2024-01-06T00:00:50;99988.00;;;-8.30
82411;BMP180;74662;60.040;30.218;2024-01-06T00:01:50;100029.00;;;-8.30
82411;BMP180;74662;60.040;30.218;2024-01-06T00:02:51;100023.00;;;-8.30
82411;BMP180;74662;60.040;30.218;2024-01-06T00:03:51;100030.00;;;-8.20
82411;BMP180;74662;60.040;30.218;2024-01-06T00:04:52;99983.00;;;-8.20
82411;BMP180;74662;60.040;30.218;2024-01-06T00:05:53;100032.00;;;-8.20
82411;BMP180;74662;60.040;30.218;2024-01-06T00:06:53;100008.00;;;-8.20
82411;BMP180;74662;60.040;30.218;2024-01-06T00:07:54;100051.00;;;-8.20
82411;BMP180;74662;60.040;30.218;2024-01-06T00:08:54;99986.00;;;-8.20
82411;BMP180;74662;60.040;30.218;2024-01-06T00:09:55;100027.00;;;-8.20
82411;BMP180;74662;60.040;30.218;2024-01-06T00:10:56;99942.00;;;-8.20
82411;BMP180;74662;60.040;30.218;2024-01-06T00:11:56;100022.00;;;-8.20
82411;BMP180;74662;60.040;30.218;2024-01-06T00:12:57;100007.00;;;-8.20
82411;BMP180;74662;60.040;30.218;2024-01-06T00:13:57;100009.00;;;-8.20
82411;BMP180;74662;60.040;30.218;2024-01-06T00:14:58;100031.00;;;-8.20
82411;BMP180;74662;60.040;30.218;2024-01-06T00:16:00;99918.00;;;-8.20
82411;BMP180;74662;60.040;30.218;2024-01-06T00:17:01;100027.00;;;-8.20
82411;BMP180;74662;60.040;30.218;2024-01-06T00:18:02;100035.00;;;-8.20
82411;BMP180;74662;60.040;30.218;2024-01-06T00:19:02;100034.00;;;-8.20
82411;BMP180;74662;60.040;30.218;2024-01-06T00:20:03;100041.00;;;-8.20
82411;BMP180;74662;60.040;30.218;2024-01-06T00:21:04;100040.00;;;-8.30
82411;BMP180;74662;60.040;30.218;2024-01-06T00:22:05;100034.00;;;-8.20
82411;BMP180;74662;60.040;30.218;2024-01-06T00:23:05;100012.00;;;-8.20
82411;BMP180;74662;60.040;30.218;2024-01-06T00:24:06;99950.00;;;-8.20
82411;BMP180;74662;60.040;30.218;2024-01-06T00:25:07;100035.00;;;-8.20
82411;BMP180;74662;60.040;30.218;2024-01-06T00:26:09;100027.00;;;-8.20
82411;BMP180;74662;60.040;30.218;2024-01-06T00:27:09;100047.00;;;-8.20
82411;BMP180;74662;60.040;30.218;2024-01-06T00:28:10;100022.00;;;-8.20
82411;BMP180;74662;60.040;30.218;2024-01-06T00:29:11;100039.00;;;-8.20
82411;BMP180;74662;60.040;30.218;2024-01-06T00:30:12;99959.00;;;-8.20
82411;BMP180;74662;60.040;30.218;2024-01-06T00:31:12;99966.00;;;-8.20
82411;BMP180;74662;60.040;30.218;2024-01-06T00:32:13;100041.00;;;-8.20
82411;BMP180;74662;60.040;30.218;2024-01-06T00:33:14;100063.00;;;-8.20
82411;BMP180;74662;60.040;30.218;2024-01-06T00:34:14;100028.00;;;-8.20
82411;BMP180;74662;60.040;30.218;2024-01-06T00:35:15;100058.00;;;-8.20
82411;BMP180;74662;60.040;30.218;2024-01-06T00:36:16;99968.00;;;-8.20
82411;BMP180;74662;60.040;30.218;2024-01-06T00:37:16;100036.00;;;-8.20
82411;BMP180;74662;60.040;30.218;2024-01-06T00:38:17;100047.00;;;-8.20
82411;BMP180;74662;60.040;30.218;2024-01-06T00:39:18;100049.00;;;-8.20
82411;BMP180;74662;60.040;30.218;2024-01-06T00:40:18;99966.00;;;-8.20
82411;BMP180;74662;60.040;30.218;2024-01-06T00:41:20;99949.00;;;-8.20
82411;BMP180;74662;60.040;30.218;2024-01-06T00:42:20;100053.00;;;-8.20
82411;BMP180;74662;60.040;30.218;2024-01-06T00:43:21;99990.00;;;-8.20
82411;BMP180;74662;60.040;30.218;2024-01-06T00:44:21;100058.00;;;-8.20
82411;BMP180;74662;60.040;30.218;2024-01-06T00:45:22;100041.00;;;-8.10
82411;BMP180;74662;60.040;30.218;2024-01-06T00:46:23;100059.00;;;-8.20
82411;BMP180;74662;60.040;30.218;2024-01-06T00:47:23;100051.00;;;-8.10
82411;BMP180;74662;60.040;30.218;2024-01-06T00:48:24;100044.00;;;-8.10
82411;BMP180;74662;60.040;30.218;2024-01-06T00:49:25;100076.00;;;-8.10
82411;BMP180;74662;60.040;30.218;2024-01-06T00:50:25;100039.00;;;-8.10
82411;BMP180;74662;60.040;30.218;2024-01-06T00:51:27;100079.00;;;-8.10
82411;BMP180;74662;60.040;30.218;2024-01-06T00:52:27;99970.00;;;-8.10
82411;BMP180;74662;60.040;30.218;2024-01-06T00:53:28;100036.00;;;-8.10
82411;BMP180;74662;60.040;30.218;2024-01-06T00:54:29;100008.00;;;-8.10
82411;BMP180;74662;60.040;30.218;2024-01-06T00:55:29;100063.00;;;-8.10
82411;BMP180;74662;60.040;30.218;2024-01-06T00:56:30;100063.00;;;-8.10
82411;BMP180;74662;60.040;30.218;2024-01-06T00:57:30;100073.00;;;-8.10
82411;BMP180;74662;60.040;30.218;2024-01-06T00:58:31;100034.00;;;-8.10
82411;BMP180;74662;60.040;30.218;2024-01-06T00:59:31;100074.00;;;-8.10
82411;BMP180;74662;60.040;30.218;2024-01-06T01:00:32;99990.00;;;-8.10
82411;BMP180;74662;60.040;30.218;2024-01-06T01:01:33;100069.00;;;-8.10
82411;BMP180;74662;60.040;30.218;2024-01-06T01:02:33;100055.00;;;-8.10
82411;BMP180;74662;60.040;30.218;2024-01-06T01:03:34;100059.00;;;-8.10
82411;BMP180;74662;60.040;30.218;2024-01-06T01:04:34;100067.00;;;-8.10
82411;BMP180;74662;60.040;30.218;2024-01-06T01:05:35;100065.00;;;-8.10
82411;BMP180;74662;60.040;30.218;2024-01-06T01:06:37;100078.00;;;-8.10
82411;BMP180;74662;60.040;30.218;2024-01-06T01:07:38;99992.00;;;-8.10
82411;BMP180;74662;60.040;30.218;2024-01-06T01:08:38;99999.00;;;-8.10
82411;BMP180;74662;60.040;30.218;2024-01-06T01:09:39;100080.00;;;-8.10
82411;BMP180;74662;60.040;30.218;2024-01-06T01:10:39;100079.00;;;-8.10
82411;BMP180;74662;60.040;30.218;2024-01-06T01:11:41;100068.00;;;-8.10
82411;BMP180;74662;60.040;30.218;2024-01-06T01:12:42;100063.00;;;-8.10
82411;BMP180;74662;60.040;30.218;2024-01-06T01:13:43;100056.00;;;-8.10
82411;BMP180;74662;60.040;30.218;2024-01-06T01:14:43;100076.00;;;-8.10
82411;BMP180;74662;60.040;30.218;2024-01-06T01:15:44;100055.00;;;-8.10
82411;BMP180;74662;60.040;30.218;2024-01-06T01:16:44;100074.00;;;-8.10
82411;BMP180;74662;60.040;30.218;2024-01-06T01:17:45;100073.00;;;-8.10
82411;BMP180;74662;60.040;30.218;2024-01-06T01:18:45;99964.00;;;-8.10
82411;BMP180;74662;60.040;30.218;2024-01-06T01:19:46;100061.00;;;-8.10
82411;BMP180;74662;60.040;30.218;2024-01-06T01:20:47;99989.00;;;-8.10
82411;BMP180;74662;60.040;30.218;2024-01-06T01:21:47;100076.00;;;-8.10
82411;BMP180;74662;60.040;30.218;2024-01-06T01:22:48;100045.00;;;-8.10
82411;BMP180;74662;60.040;30.218;2024-01-06T01:23:49;100042.00;;;-8.10
82411;BMP180;74662;60.040;30.218;2024-01-06T01:24:50;99992.00;;;-8.10
82411;BMP180;74662;60.040;30.218;2024-01-06T01:25:50;99980.00;;;-8.10
82411;BMP180;74662;60.040;30.218;2024-01-06T01:26:51;100061.00;;;-8.10
82411;BMP180;74662;60.040;30.218;2024-01-06T01:27:51;100060.00;;;-8.10
82411;BMP180;74662;60.040;30.218;2024-01-06T01:28:52;100065.00;;;-8.00
82411;BMP180;74662;60.040;30.218;2024-01-06T01:29:52;100050.00;;;-8.00
82411;BMP180;74662;60.040;30.218;2024-01-06T01:30:55;100009.00;;;-8.00
82411;BMP180;74662;60.040;30.218;2024-01-06T01:31:55;99989.00;;;-8.00
82411;BMP180;74662;60.040;30.218;2024-01-06T01:32:56;100070.00;;;-8.00
82411;BMP180;74662;60.040;30.218;2024-01-06T01:33:56;99993.00;;;-8.00
82411;BMP180;74662;60.040;30.218;2024-01-06T01:34:57;100077.00;;;-8.00
82411;BMP180;74662;60.040;30.218;2024-01-06T01:35:58;100091.00;;;-8.00
82411;BMP180;74662;60.040;30.218;2024-01-06T01:36:59;100061.00;;;-8.00
82411;BMP180;74662;60.040;30.218;2024-01-06T01:38:00;100091.00;;;-8.10
82411;BMP180;74662;60.040;30.218;2024-01-06T01:39:00;100090.00;;;-8.00
82411;BMP180;74662;60.040;30.218;2024-01-06T01:40:01;100013.00;;;-8.00
82411;BMP180;74662;60.040;30.218;2024-01-06T01:41:01;100106.00;;;-8.00
82411;BMP180;74662;60.040;30.218;2024-01-06T01:42:02;100091.00;;;-8.00
82411;BMP180;74662;60.040;30.218;2024-01-06T01:43:03;100110.00;;;-8.00
82411;BMP180;74662;60.040;30.218;2024-01-06T01:44:04;100079.00;;;-8.00
82411;BMP180;74662;60.040;30.218;2024-01-06T01:45:05;100095.00;;;-8.00
82411;BMP180;74662;60.040;30.218;2024-01-06T01:46:05;100083.00;;;-8.10
82411;BMP180;74662;60.040;30.218;2024-01-06T01:47:06;99997.00;;;-8.00
82411;BMP180;74662;60.040;30.218;2024-01-06T01:48:08;100090.00;;;-8.00
82411;BMP180;74662;60.040;30.218;2024-01-06T01:49:08;100002.00;;;-8.00
82411;BMP180;74662;60.040;30.218;2024-01-06T01:50:10;100096.00;;;-8.00
82411;BMP180;74662;60.040;30.218;2024-01-06T01:51:12;100025.00;;;-8.00
82411;BMP180;74662;60.040;30.218;2024-01-06T01:52:15;99998.00;;;-8.00
82411;BMP180;74662;60.040;30.218;2024-01-06T01:53:16;100069.00;;;-8.00
82411;BMP180;74662;60.040;30.218;2024-01-06T01:54:16;100077.00;;;-8.00
82411;BMP180;74662;60.040;30.218;2024-01-06T01:55:17;100012.00;;;-8.00
82411;BMP180;74662;60.040;30.218;2024-01-06T01:56:19;100102.00;;;-8.00
82411;BMP180;74662;60.040;30.218;2024-01-06T01:57:20;100102.00;;;-8.00
82411;BMP180;74662;60.040;30.218;2024-01-06T01:58:21;100115.00;;;-8.00
82411;BMP180;74662;60.040;30.218;2024-01-06T01:59:21;100085.00;;;-8.00
82411;BMP180;74662;60.040;30.218;2024-01-06T02:00:22;100070.00;;;-8.00
82411;BMP180;74662;60.040;30.218;2024-01-06T02:01:23;100100.00;;;-8.00
82411;BMP180;74662;60.040;30.218;2024-01-06T02:02:23;100069.00;;;-8.00
82411;BMP180;74662;60.040;30.218;2024-01-06T02:03:25;100033.00;;;-8.00
82411;BMP180;74662;60.040;30.218;2024-01-06T02:04:26;100107.00;;;-8.00
82411;BMP180;74662;60.040;30.218;2024-01-06T02:05:27;100109.00;;;-8.00
82411;BMP180;74662;60.040;30.218;2024-01-06T02:06:27;100115.00;;;-8.00
82411;BMP180;74662;60.040;30.218;2024-01-06T02:07:28;100080.00;;;-8.00
82411;BMP180;74662;60.040;30.218;2024-01-06T02:08:29;100112.00;;;-8.00
82411;BMP180;74662;60.040;30.218;2024-01-06T02:09:29;100102.00;;;-8.00
82411;BMP180;74662;60.040;30.218;2024-01-06T02:10:30;100034.00;;;-8.00
82411;BMP180;74662;60.040;30.218;2024-01-06T02:11:31;99983.00;;;-8.00
82411;BMP180;74662;60.040;30.218;2024-01-06T02:12:31;100117.00;;;-8.00
82411;BMP180;74662;60.040;30.218;2024-01-06T02:13:33;100110.00;;;-8.00
82411;BMP180;74662;60.040;30.218;2024-01-06T02:14:35;100118.00;;;-8.00
82411;BMP180;74662;60.040;30.218;2024-01-06T02:15:36;100091.00;;;-8.00
82411;BMP180;74662;60.040;30.218;2024-01-06T02:16:37;100115.00;;;-8.00
82411;BMP180;74662;60.040;30.218;2024-01-06T02:17:37;100110.00;;;-8.00
82411;BMP180;74662;60.040;30.218;2024-01-06T02:18:40;100098.00;;;-8.00
82411;BMP180;74662;60.040;30.218;2024-01-06T02:19:41;100099.00;;;-8.00
82411;BMP180;74662;60.040;30.218;2024-01-06T02:20:43;100110.00;;;-8.00
82411;BMP180;74662;60.040;30.218;2024-01-06T02:21:49;100102.00;;;-8.00
82411;BMP180;74662;60.040;30.218;2024-01-06T02:22:50;100111.00;;;-7.90
82411;BMP180;74662;60.040;30.218;2024-01-06T02:23:50;100087.00;;;-8.00
82411;BMP180;74662;60.040;30.218;2024-01-06T02:24:51;100116.00;;;-8.00
82411;BMP180;74662;60.040;30.218;2024-01-06T02:25:52;100106.00;;;-8.00
82411;BMP180;74662;60.040;30.218;2024-01-06T02:26:53;100051.00;;;-8.00
82411;BMP180;74662;60.040;30.218;2024-01-06T02:27:53;100102.00;;;-8.00
82411;BMP180;74662;60.040;30.218;2024-01-06T02:28:54;100036.00;;;-8.00
82411;BMP180;74662;60.040;30.218;2024-01-06T02:29:54;100125.00;;;-7.90
82411;BMP180;74662;60.040;30.218;2024-01-06T02:30:55;100100.00;;;-7.90
82411;BMP180;74662;60.040;30.218;2024-01-06T02:31:56;100020.00;;;-7.90
82411;BMP180;74662;60.040;30.218;2024-01-06T02:32:56;100106.00;;;-7.90
82411;BMP180;74662;60.040;30.218;2024-01-06T02:33:57;100109.00;;;-7.90
82411;BMP180;74662;60.040;30.218;2024-01-06T02:34:57;100105.00;;;-7.90
82411;BMP180;74662;60.040;30.218;2024-01-06T02:35:58;100128.00;;;-7.90
82411;BMP180;74662;60.040;30.218;2024-01-06T02:36:58;100121.00;;;-7.90
82411;BMP180;74662;60.040;30.218;2024-01-06T02:37:59;100109.00;;;-7.90
82411;BMP180;74662;60.040;30.218;2024-01-06T02:39:00;100123.00;;;-7.90
82411;BMP180;74662;60.040;30.218;2024-01-06T02:40:00;100100.00;;;-7.90
82411;BMP180;74662;60.040;30.218;2024-01-06T02:41:01;100120.00;;;-7.90
82411;BMP180;74662;60.040;30.218;2024-01-06T02:42:02;100094.00;;;-7.90
82411;BMP180;74662;60.040;30.218;2024-01-06T02:43:02;100098.00;;;-7.90
82411;BMP180;74662;60.040;30.218;2024-01-06T02:44:03;100101.00;;;-7.90
82411;BMP180;74662;60.040;30.218;2024-01-06T02:45:04;100097.00;;;-7.90
82411;BMP180;74662;60.040;30.218;2024-01-06T02:46:06;100111.00;;;-7.90
82411;BMP180;74662;60.040;30.218;2024-01-06T02:47:07;100106.00;;;-7.90
82411;BMP180;74662;60.040;30.218;2024-01-06T02:48:08;100040.00;;;-7.90
82411;BMP180;74662;60.040;30.218;2024-01-06T02:49:08;100124.00;;;-7.90
82411;BMP180;74662;60.040;30.218;2024-01-06T02:50:09;100111.00;;;-7.90
82411;BMP180;74662;60.040;30.218;2024-01-06T02:51:11;100098.00;;;-7.90
82411;BMP180;74662;60.040;30.218;2024-01-06T02:52:13;100038.00;;;-7.90
82411;BMP180;74662;60.040;30.218;2024-01-06T02:53:13;100095.00;;;-7.90
82411;BMP180;74662;60.040;30.218;2024-01-06T02:54:14;100028.00;;;-7.90
82411;BMP180;74662;60.040;30.218;2024-01-06T02:55:14;100042.00;;;-7.80
82411;BMP180;74662;60.040;30.218;2024-01-06T02:56:15;100090.00;;;-7.80
82411;BMP180;74662;60.040;30.218;2024-01-06T02:57:16;100113.00;;;-7.90
82411;BMP180;74662;60.040;30.218;2024-01-06T02:58:17;100030.00;;;-7.80
82411;BMP180;74662;60.040;30.218;2024-01-06T02:59:17;100121.00;;;-7.90
82411;BMP180;74662;60.040;30.218;2024-01-06T03:00:18;100121.00;;;-7.90
82411;BMP180;74662;60.040;30.218;2024-01-06T03:01:18;100109.00;;;-7.80
82411;BMP180;74662;60.040;30.218;2024-01-06T03:02:19;100096.00;;;-7.80
82411;BMP180;74662;60.040;30.218;2024-01-06T03:03:20;100056.00;;;-7.90
82411;BMP180;74662;60.040;30.218;2024-01-06T03:04:20;100036.00;;;-7.80
82411;BMP180;74662;60.040;30.218;2024-01-06T03:05:21;100042.00;;;-7.80
82411;BMP180;74662;60.040;30.218;2024-01-06T03:06:21;100128.00;;;-7.80
82411;BMP180;74662;60.040;30.218;2024-01-06T03:07:22;100115.00;;;-7.80
82411;BMP180;74662;60.040;30.218;2024-01-06T03:08:23;100122.00;;;-7.90
82411;BMP180;74662;60.040;30.218;2024-01-06T03:09:23;100092.00;;;-7.90
82411;BMP180;74662;60.040;30.218;2024-01-06T03:10:24;100129.00;;;-7.90
82411;BMP180;74662;60.040;30.218;2024-01-06T03:11:25;100145.00;;;-7.80
82411;BMP180;74662;60.040;30.218;2024-01-06T03:12:25;100108.00;;;-7.80
82411;BMP180;74662;60.040;30.218;2024-01-06T03:13:26;100124.00;;;-7.80
82411;BMP180;74662;60.040;30.218;2024-01-06T03:14:26;100127.00;;;-7.80
82411;BMP180;74662;60.040;30.218;2024-01-06T03:15:27;100123.00;;;-7.80
82411;BMP180;74662;60.040;30.218;2024-01-06T03:16:28;100123.00;;;-7.80
82411;BMP180;74662;60.040;30.218;2024-01-06T03:17:28;100058.00;;;-7.80
82411;BMP180;74662;60.040;30.218;2024-01-06T03:18:29;100142.00;;;-7.80
82411;BMP180;74662;60.040;30.218;2024-01-06T03:19:30;100030.00;;;-7.80
82411;BMP180;74662;60.040;30.218;2024-01-06T03:20:31;100138.00;;;-7.80
82411;BMP180;74662;60.040;30.218;2024-01-06T03:21:31;100052.00;;;-7.80
82411;BMP180;74662;60.040;30.218;2024-01-06T03:22:32;100110.00;;;-7.80
82411;BMP180;74662;60.040;30.218;2024-01-06T03:23:33;100106.00;;;-7.80
82411;BMP180;74662;60.040;30.218;2024-01-06T03:24:34;100030.00;;;-7.80
82411;BMP180;74662;60.040;30.218;2024-01-06T03:25:34;100133.00;;;-7.80
82411;BMP180;74662;60.040;30.218;2024-01-06T03:26:35;100062.00;;;-7.80
82411;BMP180;74662;60.040;30.218;2024-01-06T03:27:35;100061.00;;;-7.80
82411;BMP180;74662;60.040;30.218;2024-01-06T03:28:36;100114.00;;;-7.80
82411;BMP180;74662;60.040;30.218;2024-01-06T03:29:36;100142.00;;;-7.80
82411;BMP180;74662;60.040;30.218;2024-01-06T03:30:37;100044.00;;;-7.80
82411;BMP180;74662;60.040;30.218;2024-01-06T03:31:38;100123.00;;;-7.80
82411;BMP180;74662;60.040;30.218;2024-01-06T03:32:41;100097.00;;;-7.80
82411;BMP180;74662;60.040;30.218;2024-01-06T03:33:45;100060.00;;;-7.80
82411;BMP180;74662;60.040;30.218;2024-01-06T03:34:46;100147.00;;;-7.80
82411;BMP180;74662;60.040;30.218;2024-01-06T03:35:46;100153.00;;;-7.80
82411;BMP180;74662;60.040;30.218;2024-01-06T03:36:47;100151.00;;;-7.80
82411;BMP180;74662;60.040;30.218;2024-01-06T03:37:47;100079.00;;;-7.80
82411;BMP180;74662;60.040;30.218;2024-01-06T03:38:48;100143.00;;;-7.80
82411;BMP180;74662;60.040;30.218;2024-01-06T03:39:49;100065.00;;;-7.80
82411;BMP180;74662;60.040;30.218;2024-01-06T03:40:49;100098.00;;;-7.80
82411;BMP180;74662;60.040;30.218;2024-01-06T03:41:50;100112.00;;;-7.80
82411;BMP180;74662;60.040;30.218;2024-01-06T03:42:50;100150.00;;;-7.80
82411;BMP180;74662;60.040;30.218;2024-01-06T03:43:51;100165.00;;;-7.80
82411;BMP180;74662;60.040;30.218;2024-01-06T03:44:52;100166.00;;;-7.80
82411;BMP180;74662;60.040;30.218;2024-01-06T03:45:52;100091.00;;;-7.80
82411;BMP180;74662;60.040;30.218;2024-01-06T03:46:53;100092.00;;;-7.80
82411;BMP180;74662;60.040;30.218;2024-01-06T03:47:53;100170.00;;;-7.80
82411;BMP180;74662;60.040;30.218;2024-01-06T03:48:54;100066.00;;;-7.80
82411;BMP180;74662;60.040;30.218;2024-01-06T03:49:55;100074.00;;;-7.80
82411;BMP180;74662;60.040;30.218;2024-01-06T03:50:55;100074.00;;;-7.80
82411;BMP180;74662;60.040;30.218;2024-01-06T03:51:56;100148.00;;;-7.80
82411;BMP180;74662;60.040;30.218;2024-01-06T03:52:56;100169.00;;;-7.80
82411;BMP180;74662;60.040;30.218;2024-01-06T03:53:57;100035.00;;;-7.80
82411;BMP180;74662;60.040;30.218;2024-01-06T03:54:58;100159.00;;;-7.80
82411;BMP180;74662;60.040;30.218;2024-01-06T03:55:58;100154.00;;;-7.80
82411;BMP180;74662;60.040;30.218;2024-01-06T03:56:59;100136.00;;;-7.80
82411;BMP180;74662;60.040;30.218;2024-01-06T03:58:00;100169.00;;;-7.80
82411;BMP180;74662;60.040;30.218;2024-01-06T03:59:00;100162.00;;;-7.80
82411;BMP180;74662;60.040;30.218;2024-01-06T04:00:01;100170.00;;;-7.80
82411;BMP180;74662;60.040;30.218;2024-01-06T04:01:02;100169.00;;;-7.80
82411;BMP180;74662;60.040;30.218;2024-01-06T04:02:02;100186.00;;;-7.80
82411;BMP180;74662;60.040;30.218;2024-01-06T04:03:03;100153.00;;;-7.80
82411;BMP180;74662;60.040;30.218;2024-01-06T04:04:04;100172.00;;;-7.80
82411;BMP180;74662;60.040;30.218;2024-01-06T04:05:05;100170.00;;;-7.80
82411;BMP180;74662;60.040;30.218;2024-01-06T04:06:06;100159.00;;;-7.80
82411;BMP180;74662;60.040;30.218;2024-01-06T04:07:07;100182.00;;;-7.80
82411;BMP180;74662;60.040;30.218;2024-01-06T04:08:08;100088.00;;;-7.80
82411;BMP180;74662;60.040;30.218;2024-01-06T04:09:08;100104.00;;;-7.80
82411;BMP180;74662;60.040;30.218;2024-01-06T04:10:09;100096.00;;;-7.80
82411;BMP180;74662;60.040;30.218;2024-01-06T04:11:10;100173.00;;;-7.80
82411;BMP180;74662;60.040;30.218;2024-01-06T04:12:11;100099.00;;;-7.80
82411;BMP180;74662;60.040;30.218;2024-01-06T04:13:11;100183.00;;;-7.80
82411;BMP180;74662;60.040;30.218;2024-01-06T04:14:12;100107.00;;;-7.80
82411;BMP180;74662;60.040;30.218;2024-01-06T04:15:13;100163.00;;;-7.80
82411;BMP180;74662;60.040;30.218;2024-01-06T04:16:13;100192.00;;;-7.80
82411;BMP180;74662;60.040;30.218;2024-01-06T04:17:14;100186.00;;;-7.80
82411;BMP180;74662;60.040;30.218;2024-01-06T04:18:15;100107.00;;;-7.80
82411;BMP180;74662;60.040;30.218;2024-01-06T04:19:15;100180.00;;;-7.80
82411;BMP180;74662;60.040;30.218;2024-01-06T04:20:16;100211.00;;;-7.80
82411;BMP180;74662;60.040;30.218;2024-01-06T04:21:17;100112.00;;;-7.80
82411;BMP180;74662;60.040;30.218;2024-01-06T04:22:17;100208.00;;;-7.80
82411;BMP180;74662;60.040;30.218;2024-01-06T04:23:18;100177.00;;;-7.80
82411;BMP180;74662;60.040;30.218;2024-01-06T04:24:18;100167.00;;;-7.80
82411;BMP180;74662;60.040;30.218;2024-01-06T04:25:19;100208.00;;;-7.80
82411;BMP180;74662;60.040;30.218;2024-01-06T04:26:20;100200.00;;;-7.80
82411;BMP180;74662;60.040;30.218;2024-01-06T04:27:20;100190.00;;;-7.80
82411;BMP180;74662;60.040;30.218;2024-01-06T04:28:21;100151.00;;;-7.80
82411;BMP180;74662;60.040;30.218;2024-01-06T04:29:21;100142.00;;;-7.80
82411;BMP180;74662;60.040;30.218;2024-01-06T04:30:22;100215.00;;;-7.80
82411;BMP180;74662;60.040;30.218;2024-01-06T04:31:24;100213.00;;;-7.80
82411;BMP180;74662;60.040;30.218;2024-01-06T04:32:25;100222.00;;;-7.80
82411;BMP180;74662;60.040;30.218;2024-01-06T04:33:25;100128.00;;;-7.80
82411;BMP180;74662;60.040;30.218;2024-01-06T04:34:26;100219.00;;;-7.80
82411;BMP180;74662;60.040;30.218;2024-01-06T04:35:27;100148.00;;;-7.80
82411;BMP180;74662;60.040;30.218;2024-01-06T04:36:27;100203.00;;;-7.80
82411;BMP180;74662;60.040;30.218;2024-01-06T04:37:28;100160.00;;;-7.80
82411;BMP180;74662;60.040;30.218;2024-01-06T04:38:28;100228.00;;;-7.80
82411;BMP180;74662;60.040;30.218;2024-01-06T04:39:29;100215.00;;;-7.80
82411;BMP180;74662;60.040;30.218;2024-01-06T04:40:30;100227.00;;;-7.80
82411;BMP180;74662;60.040;30.218;2024-01-06T04:41:30;100120.00;;;-7.80
82411;BMP180;74662;60.040;30.218;2024-01-06T04:42:31;100211.00;;;-7.80
82411;BMP180;74662;60.040;30.218;2024-01-06T04:43:31;100199.00;;;-7.80
82411;BMP180;74662;60.040;30.218;2024-01-06T04:44:32;100218.00;;;-7.80
82411;BMP180;74662;60.040;30.218;2024-01-06T04:45:33;100220.00;;;-7.80
82411;BMP180;74662;60.040;30.218;2024-01-06T04:46:34;100219.00;;;-7.80
82411;BMP180;74662;60.040;30.218;2024-01-06T04:47:34;100212.00;;;-7.80
82411;BMP180;74662;60.040;30.218;2024-01-06T04:48:35;100171.00;;;-7.80
82411;BMP180;74662;60.040;30.218;2024-01-06T04:49:36;100221.00;;;-7.80
82411;BMP180;74662;60.040;30.218;2024-01-06T04:50:36;100155.00;;;-7.80
82411;BMP180;74662;60.040;30.218;2024-01-06T04:51:37;100042.00;;;-7.80
82411;BMP180;74662;60.040;30.218;2024-01-06T04:52:37;100209.00;;;-7.80
82411;BMP180;74662;60.040;30.218;2024-01-06T04:53:38;100213.00;;;-7.80
82411;BMP180;74662;60.040;30.218;2024-01-06T04:54:39;100144.00;;;-7.80
82411;BMP180;74662;60.040;30.218;2024-01-06T04:55:39;100171.00;;;-7.80
82411;BMP180;74662;60.040;30.218;2024-01-06T04:56:40;100188.00;;;-7.80
82411;BMP180;74662;60.040;30.218;2024-01-06T04:57:41;100223.00;;;-7.80
82411;BMP180;74662;60.040;30.218;2024-01-06T04:58:41;100147.00;;;-7.80
82411;BMP180;74662;60.040;30.218;2024-01-06T04:59:42;100153.00;;;-7.80
82411;BMP180;74662;60.040;30.218;2024-01-06T05:00:42;100178.00;;;-7.80
82411;BMP180;74662;60.040;30.218;2024-01-06T05:01:43;100219.00;;;-7.80
82411;BMP180;74662;60.040;30.218;2024-01-06T05:02:44;100138.00;;;-7.80
82411;BMP180;74662;60.040;30.218;2024-01-06T05:03:45;100225.00;;;-7.80
82411;BMP180;74662;60.040;30.218;2024-01-06T05:04:45;100154.00;;;-7.80
82411;BMP180;74662;60.040;30.218;2024-01-06T05:05:46;100230.00;;;-7.80
82411;BMP180;74662;60.040;30.218;2024-01-06T05:06:47;100239.00;;;-7.80
82411;BMP180;74662;60.040;30.218;2024-01-06T05:07:47;100147.00;;;-7.80
82411;BMP180;74662;60.040;30.218;2024-01-06T05:08:48;100210.00;;;-7.80
82411;BMP180;74662;60.040;30.218;2024-01-06T05:09:49;100141.00;;;-7.80
82411;BMP180;74662;60.040;30.218;2024-01-06T05:10:52;100235.00;;;-7.80
82411;BMP180;74662;60.040;30.218;2024-01-06T05:11:53;100239.00;;;-7.80
82411;BMP180;74662;60.040;30.218;2024-01-06T05:12:53;100231.00;;;-7.80
82411;BMP180;74662;60.040;30.218;2024-01-06T05:13:54;100249.00;;;-7.80
82411;BMP180;74662;60.040;30.218;2024-01-06T05:14:54;100236.00;;;-7.80
82411;BMP180;74662;60.040;30.218;2024-01-06T05:15:55;100159.00;;;-7.80
82411;BMP180;74662;60.040;30.218;2024-01-06T05:16:56;100248.00;;;-7.80
82411;BMP180;74662;60.040;30.218;2024-01-06T05:17:56;100257.00;;;-7.80
82411;BMP180;74662;60.040;30.218;2024-01-06T05:18:57;100252.00;;;-7.80
82411;BMP180;74662;60.040;30.218;2024-01-06T05:19:57;100268.00;;;-7.80
82411;BMP180;74662;60.040;30.218;2024-01-06T05:20:58;100185.00;;;-7.80
82411;BMP180;74662;60.040;30.218;2024-01-06T05:21:59;100269.00;;;-7.80
82411;BMP180;74662;60.040;30.218;2024-01-06T05:23:00;100269.00;;;-7.80
82411;BMP180;74662;60.040;30.218;2024-01-06T05:24:01;100287.00;;;-7.80
82411;BMP180;74662;60.040;30.218;2024-01-06T05:25:01;100277.00;;;-7.80
82411;BMP180;74662;60.040;30.218;2024-01-06T05:26:03;100245.00;;;-7.80
82411;BMP180;74662;60.040;30.218;2024-01-06T05:27:04;100186.00;;;-7.80
82411;BMP180;74662;60.040;30.218;2024-01-06T05:28:04;100238.00;;;-7.80
82411;BMP180;74662;60.040;30.218;2024-01-06T05:29:05;100271.00;;;-7.80
82411;BMP180;74662;60.040;30.218;2024-01-06T05:30:06;100285.00;;;-7.80
82411;BMP180;74662;60.040;30.218;2024-01-06T05:31:08;100257.00;;;-7.80
82411;BMP180;74662;60.040;30.218;2024-01-06T05:32:09;100259.00;;;-7.80
82411;BMP180;74662;60.040;30.218;2024-01-06T05:33:10;100261.00;;;-7.80
82411;BMP180;74662;60.040;30.218;2024-01-06T05:34:13;100246.00;;;-7.80
82411;BMP180;74662;60.040;30.218;2024-01-06T05:35:16;100254.00;;;-7.80
82411;BMP180;74662;60.040;30.218;2024-01-06T05:36:19;100260.00;;;-7.90
82411;BMP180;74662;60.040;30.218;2024-01-06T05:37:20;100135.00;;;-7.80
82411;BMP180;74662;60.040;30.218;2024-01-06T05:38:21;100268.00;;;-7.80
82411;BMP180;74662;60.040;30.218;2024-01-06T05:39:21;100288.00;;;-7.80
82411;BMP180;74662;60.040;30.218;2024-01-06T05:40:22;100279.00;;;-7.80
82411;BMP180;74662;60.040;30.218;2024-01-06T05:41:22;100277.00;;;-7.80